Aérodrome :
LOGIN :

S'inscrire | Disclaimer

   EN    FR    IT 

 










Légende :    VFR   VFR Marginal   IFR   IFR Intensif   IFR Très Intensif
Visi : 
Plafond : 
>= 8 km
>= 3000ft
5 à 8 km
1000 à 3000 ft
1500m à 5 km
500 à 1000 ft
800 à 1500m
200 à 500 ft
< 800m
< 200 ft
Symboles :   Orages  Brouillard  Fortes neiges  Fortes précipitations  Vent > 20 kt
SIGMETs :   Divers  Orages  Givrage  Turbulence  Onde Orograph.  Cendres Volcan.







- Altitude de l'aérodrome : 1090 ft
- Code IATA : CFE
- Voir les cartes d'approche


LFLC - Clermont-Ferrand Auvergne

DERNIER METAR :
  • 240430Z AUTO 00000KT CAVOK 03/00 Q1025 TEMPO 3500 BR

METARs EXPIRÉS :
  • 240400Z AUTO 28002KT CAVOK 02/M01 Q1025 TEMPO 3500 BR
  • 240330Z AUTO 35003KT CAVOK 03/M00 Q1025 TEMPO 3500 BR
  • 240300Z AUTO 36002KT CAVOK 04/M01 Q1025 TEMPO 3500 BR
  • 240230Z AUTO 33003KT CAVOK 05/00 Q1025 TEMPO 3500 BR
  • 240200Z AUTO 00000KT CAVOK 03/M00 Q1025 NOSIG

TAF TAF LFLC
Valide du 24 à 03h jusqu'au 25 à 03h UTC


240200Z 2403/2503 VRB03KT CAVOK
PROB30
TEMPO 2404/2407 3500 BR NSC
BECMG 2411/2414 01010KT SCT045
BECMG 2415/2418 BKN030
ATIS : +33 4 73 62 74 38
Pas de NOTAMs connus pour ce terrain.



MET'MAP, la Météo Aéronautique d'un coup d'oeil ! - Copyright ORBIFLY Décembre 2007 - Disclaimer

ORBIFLY MET'MAP TEAM :

Programmation & Développement : Alexandra Zaïnal
Conception & Développement : Baudouin d'Aumeries
Co-Programmation & Développement : Marc-Olivier Méhu
Soutien technique & logistique : Manuel Goepfert

Contact : metmap@orbifly.com




SOURCES & CREDITS :

   NOAA